sensor_id;sensor_type;location;lat;lon;timestamp;P1;durP1;ratioP1;P2;durP2;ratioP2
75167;SDS011;63748;48.088;11.476;2023-04-24T00:01:19;0.65;;;0.60;;
75167;SDS011;63748;48.088;11.476;2023-04-24T00:03:45;1.52;;;0.70;;
75167;SDS011;63748;48.088;11.476;2023-04-24T00:06:11;1.33;;;0.70;;
75167;SDS011;63748;48.088;11.476;2023-04-24T00:08:37;1.10;;;0.70;;
75167;SDS011;63748;48.088;11.476;2023-04-24T00:11:03;1.17;;;0.65;;
75167;SDS011;63748;48.088;11.476;2023-04-24T00:13:30;1.10;;;0.60;;
75167;SDS011;63748;48.088;11.476;2023-04-24T00:15:56;3.80;;;0.60;;
75167;SDS011;63748;48.088;11.476;2023-04-24T00:18:22;1.73;;;0.60;;
75167;SDS011;63748;48.088;11.476;2023-04-24T00:20:48;0.75;;;0.60;;
75167;SDS011;63748;48.088;11.476;2023-04-24T00:23:14;0.65;;;0.50;;
75167;SDS011;63748;48.088;11.476;2023-04-24T00:25:40;2.55;;;0.80;;
75167;SDS011;63748;48.088;11.476;2023-04-24T00:28:06;0.80;;;0.50;;
75167;SDS011;63748;48.088;11.476;2023-04-24T00:30:32;1.10;;;0.70;;
75167;SDS011;63748;48.088;11.476;2023-04-24T00:32:58;1.58;;;0.50;;
75167;SDS011;63748;48.088;11.476;2023-04-24T00:35:24;1.30;;;0.60;;
75167;SDS011;63748;48.088;11.476;2023-04-24T00:37:50;0.57;;;0.40;;
75167;SDS011;63748;48.088;11.476;2023-04-24T00:40:16;1.58;;;0.40;;
75167;SDS011;63748;48.088;11.476;2023-04-24T00:42:42;0.55;;;0.47;;
75167;SDS011;63748;48.088;11.476;2023-04-24T00:45:09;0.77;;;0.50;;
75167;SDS011;63748;48.088;11.476;2023-04-24T00:47:35;0.73;;;0.65;;
75167;SDS011;63748;48.088;11.476;2023-04-24T00:50:02;0.50;;;0.50;;
75167;SDS011;63748;48.088;11.476;2023-04-24T00:52:29;1.92;;;0.63;;
75167;SDS011;63748;48.088;11.476;2023-04-24T00:54:57;0.47;;;0.30;;
75167;SDS011;63748;48.088;11.476;2023-04-24T00:57:23;0.95;;;0.50;;
75167;SDS011;63748;48.088;11.476;2023-04-24T00:59:50;0.40;;;0.40;;
75167;SDS011;63748;48.088;11.476;2023-04-24T01:02:16;0.70;;;0.50;;
75167;SDS011;63748;48.088;11.476;2023-04-24T01:04:42;0.45;;;0.43;;
75167;SDS011;63748;48.088;11.476;2023-04-24T01:07:08;3.33;;;0.70;;
75167;SDS011;63748;48.088;11.476;2023-04-24T01:09:39;0.63;;;0.40;;
75167;SDS011;63748;48.088;11.476;2023-04-24T01:12:08;0.40;;;0.40;;
75167;SDS011;63748;48.088;11.476;2023-04-24T01:14:35;0.45;;;0.35;;
75167;SDS011;63748;48.088;11.476;2023-04-24T01:17:01;0.93;;;0.52;;
75167;SDS011;63748;48.088;11.476;2023-04-24T01:19:27;0.68;;;0.43;;
75167;SDS011;63748;48.088;11.476;2023-04-24T01:21:53;2.17;;;0.57;;
75167;SDS011;63748;48.088;11.476;2023-04-24T01:24:20;0.50;;;0.50;;
75167;SDS011;63748;48.088;11.476;2023-04-24T01:26:46;0.60;;;0.25;;
75167;SDS011;63748;48.088;11.476;2023-04-24T01:29:12;0.32;;;0.32;;
75167;SDS011;63748;48.088;11.476;2023-04-24T01:31:39;0.85;;;0.40;;
75167;SDS011;63748;48.088;11.476;2023-04-24T01:34:05;3.97;;;0.30;;
75167;SDS011;63748;48.088;11.476;2023-04-24T01:36:32;0.32;;;0.30;;
75167;SDS011;63748;48.088;11.476;2023-04-24T01:41:26;0.50;;;0.43;;
75167;SDS011;63748;48.088;11.476;2023-04-24T01:43:52;0.32;;;0.30;;
75167;SDS011;63748;48.088;11.476;2023-04-24T01:46:18;0.40;;;0.40;;
75167;SDS011;63748;48.088;11.476;2023-04-24T01:48:45;0.20;;;0.20;;
75167;SDS011;63748;48.088;11.476;2023-04-24T01:51:11;0.63;;;0.57;;
75167;SDS011;63748;48.088;11.476;2023-04-24T01:53:37;0.52;;;0.40;;
75167;SDS011;63748;48.088;11.476;2023-04-24T01:56:03;0.63;;;0.45;;
75167;SDS011;63748;48.088;11.476;2023-04-24T01:58:29;0.35;;;0.30;;
75167;SDS011;63748;48.088;11.476;2023-04-24T02:00:58;0.25;;;0.20;;
75167;SDS011;63748;48.088;11.476;2023-04-24T02:03:25;0.30;;;0.30;;
75167;SDS011;63748;48.088;11.476;2023-04-24T02:05:52;0.50;;;0.45;;
75167;SDS011;63748;48.088;11.476;2023-04-24T02:08:18;0.35;;;0.35;;
75167;SDS011;63748;48.088;11.476;2023-04-24T02:10:44;0.30;;;0.30;;
75167;SDS011;63748;48.088;11.476;2023-04-24T02:13:10;0.65;;;0.30;;
75167;SDS011;63748;48.088;11.476;2023-04-24T02:15:36;0.32;;;0.32;;
75167;SDS011;63748;48.088;11.476;2023-04-24T02:18:02;0.75;;;0.32;;
75167;SDS011;63748;48.088;11.476;2023-04-24T02:20:28;0.15;;;0.10;;
75167;SDS011;63748;48.088;11.476;2023-04-24T02:22:54;0.30;;;0.30;;
75167;SDS011;63748;48.088;11.476;2023-04-24T02:25:20;0.60;;;0.30;;
75167;SDS011;63748;48.088;11.476;2023-04-24T02:27:46;0.55;;;0.40;;
75167;SDS011;63748;48.088;11.476;2023-04-24T02:30:12;0.30;;;0.30;;
75167;SDS011;63748;48.088;11.476;2023-04-24T02:32:39;0.68;;;0.45;;
75167;SDS011;63748;48.088;11.476;2023-04-24T02:35:05;0.20;;;0.20;;
75167;SDS011;63748;48.088;11.476;2023-04-24T02:37:31;0.75;;;0.60;;
75167;SDS011;63748;48.088;11.476;2023-04-24T02:39:57;0.30;;;0.30;;
75167;SDS011;63748;48.088;11.476;2023-04-24T02:42:23;1.58;;;0.55;;
75167;SDS011;63748;48.088;11.476;2023-04-24T02:44:49;0.52;;;0.43;;
75167;SDS011;63748;48.088;11.476;2023-04-24T02:47:16;0.40;;;0.30;;
75167;SDS011;63748;48.088;11.476;2023-04-24T02:49:42;0.73;;;0.50;;
75167;SDS011;63748;48.088;11.476;2023-04-24T02:52:08;0.22;;;0.22;;
75167;SDS011;63748;48.088;11.476;2023-04-24T02:54:35;0.70;;;0.30;;
75167;SDS011;63748;48.088;11.476;2023-04-24T02:57:01;0.30;;;0.30;;
75167;SDS011;63748;48.088;11.476;2023-04-24T02:59:27;0.22;;;0.20;;
75167;SDS011;63748;48.088;11.476;2023-04-24T03:01:54;0.17;;;0.17;;
75167;SDS011;63748;48.088;11.476;2023-04-24T03:04:20;0.28;;;0.28;;
75167;SDS011;63748;48.088;11.476;2023-04-24T03:06:47;1.40;;;0.52;;
75167;SDS011;63748;48.088;11.476;2023-04-24T03:09:13;1.13;;;0.30;;
75167;SDS011;63748;48.088;11.476;2023-04-24T03:11:39;0.60;;;0.30;;
75167;SDS011;63748;48.088;11.476;2023-04-24T03:14:05;0.77;;;0.32;;
75167;SDS011;63748;48.088;11.476;2023-04-24T03:16:31;1.20;;;0.50;;
75167;SDS011;63748;48.088;11.476;2023-04-24T03:18:58;0.35;;;0.30;;
75167;SDS011;63748;48.088;11.476;2023-04-24T03:21:24;1.50;;;0.50;;
75167;SDS011;63748;48.088;11.476;2023-04-24T03:23:51;0.47;;;0.45;;
75167;SDS011;63748;48.088;11.476;2023-04-24T03:26:17;0.45;;;0.30;;
75167;SDS011;63748;48.088;11.476;2023-04-24T03:28:43;0.30;;;0.30;;
75167;SDS011;63748;48.088;11.476;2023-04-24T03:31:09;0.45;;;0.45;;
75167;SDS011;63748;48.088;11.476;2023-04-24T03:33:35;0.40;;;0.40;;
75167;SDS011;63748;48.088;11.476;2023-04-24T03:36:01;0.70;;;0.50;;
75167;SDS011;63748;48.088;11.476;2023-04-24T03:38:28;0.80;;;0.65;;
75167;SDS011;63748;48.088;11.476;2023-04-24T03:40:54;0.50;;;0.50;;
75167;SDS011;63748;48.088;11.476;2023-04-24T03:43:20;1.17;;;0.40;;
75167;SDS011;63748;48.088;11.476;2023-04-24T03:45:46;0.47;;;0.40;;
75167;SDS011;63748;48.088;11.476;2023-04-24T03:48:12;0.50;;;0.40;;
75167;SDS011;63748;48.088;11.476;2023-04-24T03:50:38;0.75;;;0.40;;
75167;SDS011;63748;48.088;11.476;2023-04-24T03:53:04;1.08;;;0.47;;
75167;SDS011;63748;48.088;11.476;2023-04-24T03:55:30;0.30;;;0.30;;
75167;SDS011;63748;48.088;11.476;2023-04-24T03:57:56;0.60;;;0.50;;
75167;SDS011;63748;48.088;11.476;2023-04-24T04:00:22;2.38;;;0.60;;
75167;SDS011;63748;48.088;11.476;2023-04-24T04:02:48;0.38;;;0.38;;
75167;SDS011;63748;48.088;11.476;2023-04-24T04:05:14;0.60;;;0.50;;
75167;SDS011;63748;48.088;11.476;2023-04-24T04:07:41;0.32;;;0.30;;
75167;SDS011;63748;48.088;11.476;2023-04-24T04:10:07;1.25;;;0.30;;
75167;SDS011;63748;48.088;11.476;2023-04-24T04:12:33;0.40;;;0.32;;
75167;SDS011;63748;48.088;11.476;2023-04-24T04:14:59;0.93;;;0.40;;
75167;SDS011;63748;48.088;11.476;2023-04-24T04:17:25;0.40;;;0.40;;
75167;SDS011;63748;48.088;11.476;2023-04-24T04:19:51;2.55;;;0.43;;
75167;SDS011;63748;48.088;11.476;2023-04-24T04:22:17;0.98;;;0.57;;
75167;SDS011;63748;48.088;11.476;2023-04-24T04:24:43;0.65;;;0.47;;
75167;SDS011;63748;48.088;11.476;2023-04-24T04:27:09;0.50;;;0.40;;
75167;SDS011;63748;48.088;11.476;2023-04-24T04:29:36;0.63;;;0.60;;
75167;SDS011;63748;48.088;11.476;2023-04-24T04:32:02;0.70;;;0.35;;
75167;SDS011;63748;48.088;11.476;2023-04-24T04:34:28;0.80;;;0.60;;
75167;SDS011;63748;48.088;11.476;2023-04-24T04:36:54;0.63;;;0.63;;
75167;SDS011;63748;48.088;11.476;2023-04-24T04:39:20;1.75;;;1.02;;
75167;SDS011;63748;48.088;11.476;2023-04-24T04:41:47;1.02;;;0.60;;
75167;SDS011;63748;48.088;11.476;2023-04-24T04:44:14;0.98;;;0.52;;
75167;SDS011;63748;48.088;11.476;2023-04-24T04:46:40;0.32;;;0.30;;
75167;SDS011;63748;48.088;11.476;2023-04-24T04:49:07;2.55;;;0.40;;
75167;SDS011;63748;48.088;11.476;2023-04-24T04:51:33;0.52;;;0.50;;
75167;SDS011;63748;48.088;11.476;2023-04-24T04:54:00;0.22;;;0.22;;
75167;SDS011;63748;48.088;11.476;2023-04-24T04:56:26;0.45;;;0.45;;
75167;SDS011;63748;48.088;11.476;2023-04-24T04:58:52;0.50;;;0.40;;
75167;SDS011;63748;48.088;11.476;2023-04-24T05:01:18;0.45;;;0.40;;
75167;SDS011;63748;48.088;11.476;2023-04-24T05:03:44;0.63;;;0.45;;
75167;SDS011;63748;48.088;11.476;2023-04-24T05:06:10;0.20;;;0.20;;
75167;SDS011;63748;48.088;11.476;2023-04-24T05:08:36;0.55;;;0.30;;
75167;SDS011;63748;48.088;11.476;2023-04-24T05:11:02;0.40;;;0.30;;
75167;SDS011;63748;48.088;11.476;2023-04-24T05:13:29;0.30;;;0.30;;
75167;SDS011;63748;48.088;11.476;2023-04-24T05:15:55;0.20;;;0.20;;
75167;SDS011;63748;48.088;11.476;2023-04-24T05:18:21;0.40;;;0.30;;
75167;SDS011;63748;48.088;11.476;2023-04-24T05:20:47;0.43;;;0.38;;
75167;SDS011;63748;48.088;11.476;2023-04-24T05:23:13;0.70;;;0.50;;
75167;SDS011;63748;48.088;11.476;2023-04-24T05:25:39;0.47;;;0.45;;
75167;SDS011;63748;48.088;11.476;2023-04-24T05:28:06;0.20;;;0.20;;
75167;SDS011;63748;48.088;11.476;2023-04-24T05:30:32;0.15;;;0.15;;
75167;SDS011;63748;48.088;11.476;2023-04-24T05:32:58;0.30;;;0.30;;
75167;SDS011;63748;48.088;11.476;2023-04-24T05:35:24;0.20;;;0.20;;
75167;SDS011;63748;48.088;11.476;2023-04-24T05:37:50;0.25;;;0.20;;
75167;SDS011;63748;48.088;11.476;2023-04-24T05:40:16;0.30;;;0.30;;
75167;SDS011;63748;48.088;11.476;2023-04-24T05:42:43;0.30;;;0.30;;
75167;SDS011;63748;48.088;11.476;2023-04-24T05:45:09;0.55;;;0.35;;
75167;SDS011;63748;48.088;11.476;2023-04-24T05:47:39;0.52;;;0.30;;
75167;SDS011;63748;48.088;11.476;2023-04-24T05:50:05;0.73;;;0.30;;
75167;SDS011;63748;48.088;11.476;2023-04-24T05:52:32;0.25;;;0.25;;
75167;SDS011;63748;48.088;11.476;2023-04-24T05:54:58;0.35;;;0.30;;
75167;SDS011;63748;48.088;11.476;2023-04-24T05:57:24;0.45;;;0.20;;
75167;SDS011;63748;48.088;11.476;2023-04-24T05:59:50;0.30;;;0.30;;
75167;SDS011;63748;48.088;11.476;2023-04-24T06:02:16;0.50;;;0.30;;
75167;SDS011;63748;48.088;11.476;2023-04-24T06:04:42;0.22;;;0.20;;
75167;SDS011;63748;48.088;11.476;2023-04-24T06:07:10;1.20;;;0.30;;
75167;SDS011;63748;48.088;11.476;2023-04-24T06:09:36;0.55;;;0.30;;
75167;SDS011;63748;48.088;11.476;2023-04-24T06:12:02;0.30;;;0.30;;
75167;SDS011;63748;48.088;11.476;2023-04-24T06:14:28;0.30;;;0.30;;
75167;SDS011;63748;48.088;11.476;2023-04-24T06:16:54;0.40;;;0.30;;
75167;SDS011;63748;48.088;11.476;2023-04-24T06:19:20;0.90;;;0.30;;
75167;SDS011;63748;48.088;11.476;2023-04-24T06:21:46;0.20;;;0.17;;
75167;SDS011;63748;48.088;11.476;2023-04-24T06:24:13;0.28;;;0.25;;
75167;SDS011;63748;48.088;11.476;2023-04-24T06:26:41;0.28;;;0.28;;
75167;SDS011;63748;48.088;11.476;2023-04-24T06:29:07;0.38;;;0.28;;
75167;SDS011;63748;48.088;11.476;2023-04-24T06:31:33;1.17;;;0.45;;
75167;SDS011;63748;48.088;11.476;2023-04-24T06:34:02;0.20;;;0.20;;
75167;SDS011;63748;48.088;11.476;2023-04-24T06:36:28;0.43;;;0.40;;
75167;SDS011;63748;48.088;11.476;2023-04-24T06:38:54;0.77;;;0.60;;
75167;SDS011;63748;48.088;11.476;2023-04-24T06:41:20;0.10;;;0.10;;
75167;SDS011;63748;48.088;11.476;2023-04-24T06:43:46;0.32;;;0.32;;
75167;SDS011;63748;48.088;11.476;2023-04-24T06:46:12;0.50;;;0.40;;
75167;SDS011;63748;48.088;11.476;2023-04-24T06:48:38;1.45;;;0.40;;
75167;SDS011;63748;48.088;11.476;2023-04-24T06:51:05;0.30;;;0.22;;
75167;SDS011;63748;48.088;11.476;2023-04-24T06:53:31;0.20;;;0.13;;
75167;SDS011;63748;48.088;11.476;2023-04-24T06:55:57;1.02;;;0.40;;
75167;SDS011;63748;48.088;11.476;2023-04-24T06:58:24;0.40;;;0.30;;
75167;SDS011;63748;48.088;11.476;2023-04-24T07:00:50;0.30;;;0.30;;
75167;SDS011;63748;48.088;11.476;2023-04-24T07:03:16;0.32;;;0.30;;
75167;SDS011;63748;48.088;11.476;2023-04-24T07:05:42;0.35;;;0.35;;
75167;SDS011;63748;48.088;11.476;2023-04-24T07:08:08;0.30;;;0.30;;
75167;SDS011;63748;48.088;11.476;2023-04-24T07:10:36;0.20;;;0.20;;
75167;SDS011;63748;48.088;11.476;2023-04-24T07:13:02;0.85;;;0.30;;
75167;SDS011;63748;48.088;11.476;2023-04-24T07:15:28;0.20;;;0.20;;
75167;SDS011;63748;48.088;11.476;2023-04-24T07:17:54;0.40;;;0.28;;
75167;SDS011;63748;48.088;11.476;2023-04-24T07:20:21;0.30;;;0.30;;
75167;SDS011;63748;48.088;11.476;2023-04-24T07:22:47;1.45;;;0.50;;
75167;SDS011;63748;48.088;11.476;2023-04-24T07:25:14;0.35;;;0.35;;
75167;SDS011;63748;48.088;11.476;2023-04-24T07:27:40;0.20;;;0.20;;
75167;SDS011;63748;48.088;11.476;2023-04-24T07:30:06;0.32;;;0.22;;
75167;SDS011;63748;48.088;11.476;2023-04-24T07:32:32;0.30;;;0.20;;
75167;SDS011;63748;48.088;11.476;2023-04-24T07:34:58;0.70;;;0.50;;
75167;SDS011;63748;48.088;11.476;2023-04-24T07:37:24;0.32;;;0.28;;
75167;SDS011;63748;48.088;11.476;2023-04-24T07:39:50;0.30;;;0.30;;
75167;SDS011;63748;48.088;11.476;2023-04-24T07:42:16;0.45;;;0.30;;
75167;SDS011;63748;48.088;11.476;2023-04-24T07:44:43;0.82;;;0.40;;
75167;SDS011;63748;48.088;11.476;2023-04-24T07:47:09;0.82;;;0.30;;
75167;SDS011;63748;48.088;11.476;2023-04-24T07:49:35;0.10;;;0.10;;
75167;SDS011;63748;48.088;11.476;2023-04-24T07:52:01;0.30;;;0.30;;
75167;SDS011;63748;48.088;11.476;2023-04-24T07:54:28;0.70;;;0.20;;
75167;SDS011;63748;48.088;11.476;2023-04-24T07:56:54;0.28;;;0.28;;
75167;SDS011;63748;48.088;11.476;2023-04-24T07:59:20;0.30;;;0.30;;
75167;SDS011;63748;48.088;11.476;2023-04-24T08:01:46;0.25;;;0.25;;
75167;SDS011;63748;48.088;11.476;2023-04-24T08:04:12;0.50;;;0.30;;
75167;SDS011;63748;48.088;11.476;2023-04-24T08:06:38;0.25;;;0.22;;
75167;SDS011;63748;48.088;11.476;2023-04-24T08:09:04;0.10;;;0.10;;
75167;SDS011;63748;48.088;11.476;2023-04-24T08:11:30;0.95;;;0.45;;
75167;SDS011;63748;48.088;11.476;2023-04-24T08:13:57;0.55;;;0.40;;
75167;SDS011;63748;48.088;11.476;2023-04-24T08:16:23;0.20;;;0.20;;
75167;SDS011;63748;48.088;11.476;2023-04-24T08:18:49;0.30;;;0.30;;
75167;SDS011;63748;48.088;11.476;2023-04-24T08:21:15;0.77;;;0.38;;
75167;SDS011;63748;48.088;11.476;2023-04-24T08:23:45;0.20;;;0.20;;
75167;SDS011;63748;48.088;11.476;2023-04-24T08:26:12;0.10;;;0.10;;
75167;SDS011;63748;48.088;11.476;2023-04-24T08:28:38;0.25;;;0.22;;
75167;SDS011;63748;48.088;11.476;2023-04-24T08:31:04;0.10;;;0.10;;
75167;SDS011;63748;48.088;11.476;2023-04-24T08:33:30;0.32;;;0.32;;
75167;SDS011;63748;48.088;11.476;2023-04-24T08:36:02;0.40;;;0.38;;
75167;SDS011;63748;48.088;11.476;2023-04-24T08:38:29;1.15;;;0.60;;
75167;SDS011;63748;48.088;11.476;2023-04-24T08:40:56;1.10;;;0.80;;
75167;SDS011;63748;48.088;11.476;2023-04-24T08:43:22;2.63;;;0.57;;
75167;SDS011;63748;48.088;11.476;2023-04-24T08:45:48;0.77;;;0.50;;
75167;SDS011;63748;48.088;11.476;2023-04-24T08:48:14;2.45;;;0.73;;
75167;SDS011;63748;48.088;11.476;2023-04-24T08:50:41;0.32;;;0.32;;
75167;SDS011;63748;48.088;11.476;2023-04-24T08:53:08;2.25;;;0.85;;
75167;SDS011;63748;48.088;11.476;2023-04-24T08:55:34;0.55;;;0.55;;
75167;SDS011;63748;48.088;11.476;2023-04-24T08:58:01;1.10;;;0.60;;
75167;SDS011;63748;48.088;11.476;2023-04-24T09:00:28;0.98;;;0.65;;
75167;SDS011;63748;48.088;11.476;2023-04-24T09:02:54;1.55;;;0.75;;
75167;SDS011;63748;48.088;11.476;2023-04-24T09:05:21;0.93;;;0.70;;
75167;SDS011;63748;48.088;11.476;2023-04-24T09:07:49;0.95;;;0.70;;
75167;SDS011;63748;48.088;11.476;2023-04-24T09:10:19;0.85;;;0.40;;
75167;SDS011;63748;48.088;11.476;2023-04-24T09:12:45;1.45;;;1.00;;
75167;SDS011;63748;48.088;11.476;2023-04-24T09:15:12;1.20;;;0.80;;
75167;SDS011;63748;48.088;11.476;2023-04-24T09:17:38;1.35;;;0.90;;
75167;SDS011;63748;48.088;11.476;2023-04-24T09:20:04;0.68;;;0.60;;
75167;SDS011;63748;48.088;11.476;2023-04-24T09:22:31;1.63;;;1.10;;
75167;SDS011;63748;48.088;11.476;2023-04-24T09:25:03;0.93;;;0.75;;
75167;SDS011;63748;48.088;11.476;2023-04-24T09:27:31;2.38;;;0.75;;
75167;SDS011;63748;48.088;11.476;2023-04-24T09:29:57;0.57;;;0.50;;
75167;SDS011;63748;48.088;11.476;2023-04-24T09:32:24;0.88;;;0.68;;
75167;SDS011;63748;48.088;11.476;2023-04-24T09:35:04;1.33;;;0.85;;
75167;SDS011;63748;48.088;11.476;2023-04-24T09:37:34;0.82;;;0.70;;
75167;SDS011;63748;48.088;11.476;2023-04-24T09:40:07;1.58;;;1.48;;
75167;SDS011;63748;48.088;11.476;2023-04-24T09:42:33;0.60;;;0.60;;
75167;SDS011;63748;48.088;11.476;2023-04-24T09:44:59;1.27;;;0.98;;
75167;SDS011;63748;48.088;11.476;2023-04-24T09:47:25;1.00;;;0.90;;
75167;SDS011;63748;48.088;11.476;2023-04-24T09:49:51;1.08;;;0.77;;
75167;SDS011;63748;48.088;11.476;2023-04-24T09:52:23;1.25;;;0.70;;
75167;SDS011;63748;48.088;11.476;2023-04-24T09:54:53;0.77;;;0.77;;
75167;SDS011;63748;48.088;11.476;2023-04-24T09:57:19;1.27;;;0.80;;
75167;SDS011;63748;48.088;11.476;2023-04-24T09:59:45;1.13;;;0.70;;
75167;SDS011;63748;48.088;11.476;2023-04-24T10:02:18;1.00;;;0.90;;
75167;SDS011;63748;48.088;11.476;2023-04-24T10:04:54;1.52;;;0.95;;
75167;SDS011;63748;48.088;11.476;2023-04-24T10:07:21;0.85;;;0.60;;
75167;SDS011;63748;48.088;11.476;2023-04-24T10:09:47;1.67;;;0.93;;
75167;SDS011;63748;48.088;11.476;2023-04-24T10:12:13;1.02;;;0.70;;
75167;SDS011;63748;48.088;11.476;2023-04-24T10:14:40;2.17;;;1.00;;
75167;SDS011;63748;48.088;11.476;2023-04-24T10:17:06;1.10;;;0.82;;
75167;SDS011;63748;48.088;11.476;2023-04-24T10:19:33;0.95;;;0.70;;
75167;SDS011;63748;48.088;11.476;2023-04-24T10:22:00;0.95;;;0.80;;
75167;SDS011;63748;48.088;11.476;2023-04-24T10:24:26;1.90;;;0.90;;
75167;SDS011;63748;48.088;11.476;2023-04-24T10:26:54;1.13;;;0.70;;
75167;SDS011;63748;48.088;11.476;2023-04-24T10:29:21;0.93;;;0.82;;
75167;SDS011;63748;48.088;11.476;2023-04-24T10:31:48;1.02;;;0.70;;
75167;SDS011;63748;48.088;11.476;2023-04-24T10:34:14;1.10;;;0.80;;
75167;SDS011;63748;48.088;11.476;2023-04-24T10:36:43;1.17;;;0.98;;
75167;SDS011;63748;48.088;11.476;2023-04-24T10:39:11;0.85;;;0.75;;
75167;SDS011;63748;48.088;11.476;2023-04-24T10:41:38;1.48;;;0.82;;
75167;SDS011;63748;48.088;11.476;2023-04-24T10:44:08;2.88;;;1.02;;
75167;SDS011;63748;48.088;11.476;2023-04-24T10:46:34;1.20;;;0.47;;
75167;SDS011;63748;48.088;11.476;2023-04-24T10:49:10;1.17;;;0.80;;
75167;SDS011;63748;48.088;11.476;2023-04-24T10:51:51;0.77;;;0.40;;
75167;SDS011;63748;48.088;11.476;2023-04-24T10:59:48;0.40;;;0.40;;
75167;SDS011;63748;48.088;11.476;2023-04-24T11:02:14;0.70;;;0.40;;
75167;SDS011;63748;48.088;11.476;2023-04-24T11:04:41;1.13;;;0.40;;
75167;SDS011;63748;48.088;11.476;2023-04-24T11:07:11;0.68;;;0.50;;
75167;SDS011;63748;48.088;11.476;2023-04-24T11:09:37;0.80;;;0.68;;
75167;SDS011;63748;48.088;11.476;2023-04-24T11:12:06;1.42;;;0.60;;
75167;SDS011;63748;48.088;11.476;2023-04-24T11:17:00;0.47;;;0.43;;
75167;SDS011;63748;48.088;11.476;2023-04-24T11:19:26;1.35;;;0.60;;
75167;SDS011;63748;48.088;11.476;2023-04-24T11:21:54;0.45;;;0.40;;
75167;SDS011;63748;48.088;11.476;2023-04-24T11:24:49;0.65;;;0.50;;
75167;SDS011;63748;48.088;11.476;2023-04-24T11:27:11;1.65;;;0.80;;
75167;SDS011;63748;48.088;11.476;2023-04-24T11:34:53;0.55;;;0.55;;
75167;SDS011;63748;48.088;11.476;2023-04-24T11:37:19;0.70;;;0.65;;
75167;SDS011;63748;48.088;11.476;2023-04-24T11:39:46;0.68;;;0.60;;
75167;SDS011;63748;48.088;11.476;2023-04-24T11:42:14;1.08;;;0.70;;
75167;SDS011;63748;48.088;11.476;2023-04-24T11:44:41;0.88;;;0.60;;
75167;SDS011;63748;48.088;11.476;2023-04-24T11:47:08;0.75;;;0.60;;
75167;SDS011;63748;48.088;11.476;2023-04-24T11:49:37;4.32;;;1.08;;
75167;SDS011;63748;48.088;11.476;2023-04-24T11:52:03;1.70;;;0.75;;
75167;SDS011;63748;48.088;11.476;2023-04-24T11:54:30;1.60;;;1.00;;
75167;SDS011;63748;48.088;11.476;2023-04-24T11:56:56;1.00;;;0.80;;
75167;SDS011;63748;48.088;11.476;2023-04-24T11:59:22;1.98;;;1.05;;
75167;SDS011;63748;48.088;11.476;2023-04-24T12:01:48;1.60;;;1.00;;
75167;SDS011;63748;48.088;11.476;2023-04-24T12:04:15;1.13;;;0.50;;
75167;SDS011;63748;48.088;11.476;2023-04-24T12:07:01;1.08;;;0.77;;
75167;SDS011;63748;48.088;11.476;2023-04-24T12:09:27;1.77;;;0.98;;
75167;SDS011;63748;48.088;11.476;2023-04-24T12:11:53;1.60;;;0.70;;
75167;SDS011;63748;48.088;11.476;2023-04-24T12:14:22;1.92;;;1.00;;
75167;SDS011;63748;48.088;11.476;2023-04-24T12:16:48;1.30;;;0.90;;
75167;SDS011;63748;48.088;11.476;2023-04-24T12:19:21;0.98;;;0.70;;
75167;SDS011;63748;48.088;11.476;2023-04-24T12:22:00;1.02;;;0.80;;
75167;SDS011;63748;48.088;11.476;2023-04-24T12:24:27;2.17;;;1.10;;
75167;SDS011;63748;48.088;11.476;2023-04-24T12:26:53;1.25;;;0.85;;
75167;SDS011;63748;48.088;11.476;2023-04-24T12:29:20;1.30;;;0.90;;
75167;SDS011;63748;48.088;11.476;2023-04-24T12:31:46;1.60;;;0.88;;
75167;SDS011;63748;48.088;11.476;2023-04-24T12:34:22;1.98;;;0.88;;
75167;SDS011;63748;48.088;11.476;2023-04-24T12:36:48;1.45;;;0.80;;
75167;SDS011;63748;48.088;11.476;2023-04-24T12:39:18;1.50;;;0.82;;
75167;SDS011;63748;48.088;11.476;2023-04-24T12:41:57;2.05;;;1.00;;
75167;SDS011;63748;48.088;11.476;2023-04-24T12:44:32;2.05;;;0.80;;
75167;SDS011;63748;48.088;11.476;2023-04-24T12:47:02;1.77;;;0.98;;
75167;SDS011;63748;48.088;11.476;2023-04-24T12:49:31;1.90;;;1.20;;
75167;SDS011;63748;48.088;11.476;2023-04-24T12:51:57;2.40;;;1.23;;
75167;SDS011;63748;48.088;11.476;2023-04-24T12:54:24;1.98;;;1.02;;
75167;SDS011;63748;48.088;11.476;2023-04-24T12:56:50;1.10;;;0.70;;
75167;SDS011;63748;48.088;11.476;2023-04-24T12:59:16;2.85;;;0.90;;
75167;SDS011;63748;48.088;11.476;2023-04-24T13:01:42;1.65;;;1.20;;
75167;SDS011;63748;48.088;11.476;2023-04-24T13:04:08;1.58;;;1.10;;
75167;SDS011;63748;48.088;11.476;2023-04-24T13:06:34;1.50;;;0.80;;
75167;SDS011;63748;48.088;11.476;2023-04-24T13:09:00;1.13;;;0.75;;
75167;SDS011;63748;48.088;11.476;2023-04-24T13:11:26;1.83;;;1.17;;
75167;SDS011;63748;48.088;11.476;2023-04-24T13:13:52;1.33;;;1.15;;
75167;SDS011;63748;48.088;11.476;2023-04-24T13:16:18;0.80;;;0.80;;
75167;SDS011;63748;48.088;11.476;2023-04-24T13:18:45;1.15;;;1.10;;
75167;SDS011;63748;48.088;11.476;2023-04-24T13:21:11;0.70;;;0.70;;
75167;SDS011;63748;48.088;11.476;2023-04-24T13:23:37;0.98;;;0.80;;
75167;SDS011;63748;48.088;11.476;2023-04-24T13:26:03;2.42;;;1.02;;
75167;SDS011;63748;48.088;11.476;2023-04-24T13:28:29;1.30;;;0.90;;
75167;SDS011;63748;48.088;11.476;2023-04-24T13:30:55;1.90;;;0.93;;
75167;SDS011;63748;48.088;11.476;2023-04-24T13:33:21;1.85;;;0.98;;
75167;SDS011;63748;48.088;11.476;2023-04-24T13:35:47;0.85;;;0.70;;
75167;SDS011;63748;48.088;11.476;2023-04-24T13:38:13;1.00;;;0.77;;
75167;SDS011;63748;48.088;11.476;2023-04-24T13:40:39;1.60;;;0.98;;
75167;SDS011;63748;48.088;11.476;2023-04-24T13:43:05;1.23;;;0.80;;
75167;SDS011;63748;48.088;11.476;2023-04-24T13:45:31;1.00;;;0.90;;
75167;SDS011;63748;48.088;11.476;2023-04-24T13:47:57;2.08;;;1.00;;
75167;SDS011;63748;48.088;11.476;2023-04-24T13:50:23;2.72;;;0.98;;
75167;SDS011;63748;48.088;11.476;2023-04-24T13:52:50;2.78;;;1.10;;
75167;SDS011;63748;48.088;11.476;2023-04-24T13:55:16;2.58;;;1.00;;
75167;SDS011;63748;48.088;11.476;2023-04-24T13:57:42;1.30;;;0.80;;
75167;SDS011;63748;48.088;11.476;2023-04-24T14:00:08;1.27;;;0.73;;
75167;SDS011;63748;48.088;11.476;2023-04-24T14:02:35;1.88;;;1.15;;
75167;SDS011;63748;48.088;11.476;2023-04-24T14:05:01;1.67;;;0.90;;
75167;SDS011;63748;48.088;11.476;2023-04-24T14:07:28;2.15;;;1.02;;
75167;SDS011;63748;48.088;11.476;2023-04-24T14:09:56;1.88;;;1.23;;
75167;SDS011;63748;48.088;11.476;2023-04-24T14:12:24;1.50;;;1.00;;
75167;SDS011;63748;48.088;11.476;2023-04-24T14:14:50;0.75;;;0.73;;
75167;SDS011;63748;48.088;11.476;2023-04-24T14:17:16;5.05;;;1.33;;
75167;SDS011;63748;48.088;11.476;2023-04-24T14:19:42;1.35;;;0.80;;
75167;SDS011;63748;48.088;11.476;2023-04-24T14:22:09;1.33;;;0.88;;
75167;SDS011;63748;48.088;11.476;2023-04-24T14:24:35;1.58;;;1.00;;
75167;SDS011;63748;48.088;11.476;2023-04-24T14:27:01;1.13;;;0.73;;
75167;SDS011;63748;48.088;11.476;2023-04-24T14:29:28;0.82;;;0.55;;
75167;SDS011;63748;48.088;11.476;2023-04-24T14:31:54;2.20;;;1.13;;
75167;SDS011;63748;48.088;11.476;2023-04-24T14:34:20;2.90;;;1.10;;
75167;SDS011;63748;48.088;11.476;2023-04-24T14:36:46;1.48;;;0.90;;
75167;SDS011;63748;48.088;11.476;2023-04-24T14:39:12;1.30;;;0.82;;
75167;SDS011;63748;48.088;11.476;2023-04-24T14:41:38;1.25;;;0.80;;
75167;SDS011;63748;48.088;11.476;2023-04-24T14:44:04;1.38;;;0.90;;
75167;SDS011;63748;48.088;11.476;2023-04-24T14:46:31;3.22;;;1.38;;